createdAt,value
2023-03-21T00:04:41.694Z,95.5
2023-03-21T00:09:47.915Z,97
2023-03-21T00:14:54.089Z,98
2023-03-21T00:20:00.342Z,99.5
2023-03-21T00:25:06.410Z,99.5
2023-03-21T00:30:12.561Z,99.5
2023-03-21T00:35:18.826Z,99.5
2023-03-21T00:40:24.863Z,99.5
2023-03-21T00:45:31.046Z,99.5
2023-03-21T00:50:37.235Z,99.5
2023-03-21T00:55:43.445Z,99.5
2023-03-21T01:00:49.621Z,99.5
2023-03-21T01:05:55.810Z,99.5
2023-03-21T01:11:01.068Z,99.5
2023-03-21T01:16:07.242Z,99.5
2023-03-21T01:21:13.445Z,99.5
2023-03-21T01:26:19.640Z,99.5
2023-03-21T01:31:25.855Z,99.5
2023-03-21T01:36:32.014Z,99.5
2023-03-21T01:41:38.232Z,99.5
2023-03-21T01:46:44.388Z,99.5
2023-03-21T01:51:50.590Z,99.5
2023-03-21T01:56:56.767Z,99.5
2023-03-21T02:02:02.964Z,99.5
2023-03-21T02:07:09.161Z,99.5
2023-03-21T02:12:15.344Z,99.5
2023-03-21T02:17:20.600Z,99.5
2023-03-21T02:22:26.770Z,99.5
2023-03-21T02:27:32.983Z,99.5
2023-03-21T02:32:39.168Z,99.5
2023-03-21T02:37:45.351Z,99.5
2023-03-21T02:42:51.558Z,99.5
2023-03-21T02:47:57.747Z,99.5
2023-03-21T02:53:03.956Z,99.5
2023-03-21T02:58:10.121Z,99.5
2023-03-21T03:03:16.327Z,99.5
2023-03-21T03:08:22.511Z,99.5
2023-03-21T03:13:28.720Z,99.5
2023-03-21T03:18:34.909Z,99.5
2023-03-21T03:23:40.144Z,99.5
2023-03-21T03:28:46.326Z,99.5
2023-03-21T03:33:52.531Z,99.5
2023-03-21T03:38:58.712Z,99.5
2023-03-21T03:44:04.903Z,99.5
2023-03-21T03:49:11.081Z,99.5
2023-03-21T03:54:17.291Z,99.5
2023-03-21T03:59:23.478Z,99.5
2023-03-21T04:04:29.672Z,99.5
2023-03-21T04:09:35.869Z,99.5
2023-03-21T04:14:42.068Z,99.5
2023-03-21T04:19:48.247Z,99.5
2023-03-21T04:24:54.433Z,99.5
2023-03-21T04:29:59.723Z,99.5
2023-03-21T04:35:05.853Z,99.5
2023-03-21T04:40:12.044Z,99.5
2023-03-21T04:45:18.254Z,99.5
2023-03-21T04:50:24.436Z,99.5
2023-03-21T04:55:30.649Z,99.5
2023-03-21T05:00:36.923Z,99.5
2023-03-21T05:05:43.036Z,99.5
2023-03-21T05:10:49.277Z,99.5
2023-03-21T05:15:55.411Z,99.5
2023-03-21T05:21:01.612Z,99.5
2023-03-21T05:26:07.795Z,99.5
2023-03-21T05:31:13.976Z,99.5
2023-03-21T05:36:19.230Z,99.5
2023-03-21T05:41:25.465Z,99.5
2023-03-21T05:46:31.597Z,99.5
2023-03-21T05:51:37.816Z,99.5
2023-03-21T05:56:44.001Z,99.5
2023-03-21T06:01:50.170Z,99.5
2023-03-21T06:06:56.421Z,99.5
2023-03-21T06:12:02.584Z,99.5
2023-03-21T06:17:08.773Z,99.5
2023-03-21T06:22:15.024Z,99.5
2023-03-21T06:27:21.140Z,99.5
2023-03-21T06:32:27.340Z,99.5
2023-03-21T06:37:33.535Z,99.5
2023-03-21T06:42:39.721Z,99.5
2023-03-21T06:47:44.980Z,99.5
2023-03-21T06:52:51.164Z,99.5
2023-03-21T06:57:56.396Z,99.5
2023-03-21T07:03:02.635Z,99.5
2023-03-21T07:08:08.787Z,99.5
2023-03-21T07:13:14.982Z,99.5
2023-03-21T07:18:21.166Z,99.5
2023-03-21T07:23:27.373Z,99.5
2023-03-21T07:28:33.545Z,99.5
2023-03-21T07:33:39.743Z,99.5
2023-03-21T07:38:45.990Z,99.5
2023-03-21T07:43:52.142Z,99.5
2023-03-21T07:48:58.320Z,99.5
2023-03-21T07:54:04.499Z,99.5
2023-03-21T07:59:10.710Z,99.5
2023-03-21T08:04:16.007Z,99.5
2023-03-21T08:09:22.133Z,99.5
2023-03-21T08:14:28.314Z,99.5
2023-03-21T08:19:34.512Z,99.5
2023-03-21T08:24:40.694Z,99.5
2023-03-21T08:29:46.982Z,99.5
2023-03-21T08:34:53.093Z,99.5
2023-03-21T08:39:59.277Z,99.5
2023-03-21T08:45:05.513Z,99.5
2023-03-21T08:50:11.648Z,99.5
2023-03-21T08:55:17.840Z,99.5
2023-03-21T09:00:24.020Z,99.5
2023-03-21T09:05:30.252Z,99.5
2023-03-21T09:10:35.745Z,99.5
2023-03-21T09:15:41.671Z,99.5
2023-03-21T09:20:47.845Z,99.5
2023-03-21T09:25:54.045Z,99.5
2023-03-21T09:31:00.219Z,99.5
2023-03-21T09:36:06.400Z,99.5
2023-03-21T09:41:12.597Z,99.5
2023-03-21T09:46:18.792Z,99.5
2023-03-21T09:51:25.005Z,99.5
2023-03-21T09:56:31.208Z,99.5
2023-03-21T10:01:37.358Z,99.5
2023-03-21T10:06:43.544Z,99.5
2023-03-21T10:11:49.742Z,99.5
2023-03-21T10:16:54.971Z,99.5
2023-03-21T10:22:01.180Z,99.5
2023-03-21T10:27:07.507Z,99.5
2023-03-21T10:32:13.611Z,99.5
2023-03-21T10:37:19.864Z,99.5
2023-03-21T10:42:26.083Z,99
2023-03-21T10:47:32.115Z,98.5
2023-03-21T10:52:38.443Z,97
2023-03-21T10:57:44.523Z,95
2023-03-21T11:02:50.840Z,96
2023-03-21T11:07:57.054Z,95
2023-03-21T11:13:03.236Z,96
2023-03-21T11:18:09.410Z,94
2023-03-21T11:23:14.655Z,93
2023-03-21T11:28:20.848Z,96.5
2023-03-21T11:33:27.022Z,94.5
2023-03-21T11:38:33.049Z,95.5
2023-03-21T11:43:39.472Z,89.5
2023-03-21T11:48:45.472Z,93.5
2023-03-21T11:53:51.610Z,91.5
2023-03-21T11:58:57.791Z,91
2023-03-21T12:04:03.992Z,88
2023-03-21T12:09:10.381Z,88
2023-03-21T12:14:16.449Z,87.5
2023-03-21T12:19:22.643Z,85.5
2023-03-21T12:24:28.860Z,85.5
2023-03-21T12:29:33.976Z,85
2023-03-21T12:34:40.222Z,86
2023-03-21T12:39:46.357Z,88
2023-03-21T12:44:52.538Z,85.5
2023-03-21T12:49:58.772Z,84.5
2023-03-21T12:55:05.090Z,82.5
2023-03-21T13:00:11.184Z,84
2023-03-21T13:05:17.291Z,81
2023-03-21T13:10:23.516Z,84
2023-03-21T13:15:29.725Z,83.5
2023-03-21T13:20:35.938Z,83
2023-03-21T13:25:42.069Z,84
2023-03-21T13:30:48.253Z,82
2023-03-21T13:35:53.527Z,80.5
2023-03-21T13:40:59.850Z,79.5
2023-03-21T14:16:43.098Z,77.5
2023-03-21T14:21:48.358Z,78
2023-03-21T14:26:53.574Z,77.5
2023-03-21T14:31:59.681Z,76.5
2023-03-21T14:37:05.879Z,78.5
2023-03-21T14:42:12.147Z,78.5
2023-03-21T14:47:18.251Z,79
2023-03-21T14:52:24.501Z,76.5
2023-03-21T14:57:30.639Z,78.5
2023-03-21T15:02:36.904Z,76.5
2023-03-21T15:07:43.027Z,77
2023-03-21T15:12:49.201Z,78
2023-03-21T15:17:55.435Z,77
2023-03-21T15:23:00.722Z,79
2023-03-21T15:28:05.928Z,80
2023-03-21T15:33:12.235Z,79
2023-03-21T15:38:18.476Z,78
2023-03-21T15:43:24.464Z,78.5
2023-03-21T15:48:30.751Z,79.5
2023-03-21T15:53:37.019Z,78
2023-03-21T15:58:43.050Z,78.5
2023-03-21T16:03:49.375Z,79.5
2023-03-21T16:08:55.403Z,81.5
2023-03-21T16:14:01.795Z,84
2023-03-21T16:19:07.955Z,85.5
2023-03-21T16:24:14.141Z,85.5
2023-03-21T16:29:20.283Z,86
2023-03-21T16:34:25.541Z,87
2023-03-21T16:39:31.664Z,88.5
2023-03-21T16:44:37.791Z,88.5
2023-03-21T16:49:44.119Z,89.5
2023-03-21T16:54:50.228Z,90.5
2023-03-21T16:59:56.433Z,90.5
2023-03-21T17:05:02.647Z,90.5
2023-03-21T17:10:08.731Z,91
2023-03-21T17:15:14.985Z,90
2023-03-21T17:20:21.115Z,88.5
2023-03-21T17:25:27.347Z,87
2023-03-21T17:30:33.479Z,85.5
2023-03-21T17:35:39.733Z,87
2023-03-21T17:40:45.049Z,88
2023-03-21T17:45:51.224Z,88
2023-03-21T17:50:57.417Z,88.5
2023-03-21T17:56:03.634Z,88
2023-03-21T18:01:09.738Z,89
2023-03-21T18:06:15.898Z,89.5
2023-03-21T18:11:22.219Z,89.5
2023-03-21T18:16:28.341Z,90.5
2023-03-21T18:21:34.568Z,90.5
2023-03-21T18:26:40.718Z,92.5
2023-03-21T18:31:46.933Z,95
2023-03-21T18:36:53.182Z,95
2023-03-21T18:41:59.269Z,96
2023-03-21T18:47:05.590Z,96.5
2023-03-21T18:52:10.779Z,97.5
2023-03-21T18:57:16.788Z,98
2023-03-21T19:02:23.001Z,98.5
2023-03-21T19:07:29.259Z,98
2023-03-21T19:12:35.524Z,98.5
2023-03-21T19:17:41.540Z,97.5
2023-03-21T19:22:47.900Z,98.5
2023-03-21T19:27:53.994Z,98.5
2023-03-21T19:33:00.092Z,99.5
2023-03-21T19:38:06.347Z,99.5
2023-03-21T19:43:12.479Z,99.5
2023-03-21T19:48:18.732Z,99.5
2023-03-21T19:53:25.008Z,99.5
2023-03-21T19:58:30.096Z,99.5
2023-03-21T20:03:36.291Z,99.5
2023-03-21T20:08:42.484Z,99.5
2023-03-21T20:13:48.650Z,99.5
2023-03-21T20:18:54.875Z,99.5
2023-03-21T20:24:01.142Z,99.5
2023-03-21T20:29:07.309Z,99.5
2023-03-21T20:34:13.581Z,99.5
2023-03-21T20:39:19.615Z,99.5
2023-03-21T20:44:25.862Z,99.5
2023-03-21T20:49:32.010Z,99.5
2023-03-21T20:54:38.347Z,99.5
2023-03-21T20:59:44.493Z,99.5
2023-03-21T21:04:49.709Z,99.5
2023-03-21T21:09:55.831Z,99.5
2023-03-21T21:15:02.125Z,99.5
2023-03-21T21:20:08.222Z,99.5
2023-03-21T21:25:14.380Z,99.5
2023-03-21T21:30:20.553Z,99.5
2023-03-21T21:35:26.812Z,99.5
2023-03-21T21:40:33.067Z,99.5
2023-03-21T21:45:39.149Z,99.5
2023-03-21T21:50:45.318Z,99.5
2023-03-21T21:55:51.521Z,99.5
2023-03-21T22:00:57.778Z,99.5
2023-03-21T22:06:03.879Z,99.5
2023-03-21T22:11:09.161Z,99.5
2023-03-21T22:16:15.310Z,99.5
2023-03-21T22:21:21.646Z,99.5
2023-03-21T22:26:27.852Z,99.5
2023-03-21T22:31:33.934Z,99.5
2023-03-21T22:36:40.178Z,99.5
2023-03-21T22:41:46.512Z,99.5
2023-03-21T22:46:52.478Z,99.5
2023-03-21T22:51:58.841Z,99.5
2023-03-21T22:57:04.952Z,99.5
2023-03-21T23:02:11.125Z,99.5
2023-03-21T23:07:17.199Z,99.5
2023-03-21T23:12:23.406Z,99.5
2023-03-21T23:17:28.644Z,99.5
2023-03-21T23:22:34.898Z,99.5
2023-03-21T23:27:41.049Z,99.5
2023-03-21T23:32:47.320Z,99.5
2023-03-21T23:37:53.465Z,99.5
2023-03-21T23:42:59.680Z,99.5
2023-03-21T23:48:05.795Z,99.5
2023-03-21T23:53:12.008Z,99.5
2023-03-21T23:58:18.192Z,99.5
